Time;durP1;ratioP1;P1;durP2;ratioP2;P2;SDS_P1;SDS_P2;PMS_P1;PMS_P2;Temp;Humidity;BMP_temperature;BMP_pressure;BME280_temperature;BME280_humidity;BME280_pressure;Samples;Min_cycle;Max_cycle;Signal;HPM_P1;HPM_P2
2022/10/30 00:00:30;;;;;;;12.05;7.50;;;15.40;99.90;;;;;;5097970;28;20146;-64
2022/10/30 00:02:56;;;;;;;12.82;8.00;;;15.30;99.90;;;;;;5097069;28;20403;-64
2022/10/30 00:05:22;;;;;;;15.25;8.07;;;15.30;99.90;;;;;;5097896;28;20032;-63
2022/10/30 00:07:49;;;;;;;13.02;7.60;;;15.40;99.90;;;;;;5097842;28;20039;-64
2022/10/30 00:10:16;;;;;;;14.45;7.75;;;15.30;99.90;;;;;;5097774;28;20051;-64
2022/10/30 00:12:42;;;;;;;13.45;7.70;;;15.30;99.90;;;;;;5098255;28;20118;-64
2022/10/30 00:15:08;;;;;;;13.93;7.68;;;15.30;99.90;;;;;;5097798;28;20028;-64
2022/10/30 00:17:34;;;;;;;19.55;7.60;;;15.30;99.90;;;;;;5096862;28;20036;-65
2022/10/30 00:20:00;;;;;;;19.02;8.55;;;15.40;99.90;;;;;;5096652;28;20034;-64
2022/10/30 00:22:26;;;;;;;19.20;8.88;;;15.50;99.90;;;;;;5096780;28;20028;-65
2022/10/30 00:24:52;;;;;;;19.20;8.48;;;15.50;99.90;;;;;;5080022;28;20036;-64
2022/10/30 00:27:17;;;;;;;12.35;7.55;;;15.60;99.90;;;;;;5097340;28;20039;-64
2022/10/30 00:29:44;;;;;;;14.57;7.95;;;15.40;99.90;;;;;;5096576;28;20101;-64
2022/10/30 00:32:10;;;;;;;14.98;7.75;;;15.40;99.90;;;;;;5079831;28;20036;-64
2022/10/30 00:34:35;;;;;;;17.67;8.15;;;15.50;99.90;;;;;;5097376;28;20334;-64
2022/10/30 00:37:01;;;;;;;14.98;8.40;;;15.50;99.90;;;;;;5096411;28;20082;-64
2022/10/30 00:39:27;;;;;;;11.90;7.70;;;15.50;99.90;;;;;;5079629;28;20040;-64
2022/10/30 00:41:53;;;;;;;13.90;7.75;;;15.50;99.90;;;;;;5096513;28;20032;-64
2022/10/30 00:44:49;;;;;;;14.82;8.00;;;15.50;99.90;;;;;;5096449;28;20082;-65
2022/10/30 00:47:50;;;;;;;15.52;8.20;;;15.50;99.90;;;;;;5096477;28;20020;-64
2022/10/30 00:50:32;;;;;;;15.32;7.47;;;15.50;99.90;;;;;;5097149;28;20446;-65
2022/10/30 00:53:04;;;;;;;13.40;7.80;;;15.50;99.90;;;;;;5096490;28;20024;-65
2022/10/30 00:55:52;;;;;;;13.32;7.07;;;15.50;99.90;;;;;;5097163;28;20111;-65
2022/10/30 00:58:25;;;;;;;13.43;7.75;;;15.40;99.90;;;;;;5095893;28;20058;-65
2022/10/30 01:00:55;;;;;;;14.75;7.93;;;15.30;99.90;;;;;;5097070;28;20024;-65
2022/10/30 01:03:21;;;;;;;16.05;7.88;;;15.20;99.90;;;;;;5096905;28;20319;-65
2022/10/30 01:05:52;;;;;;;11.55;6.88;;;15.20;99.90;;;;;;5096806;28;20043;-65
2022/10/30 01:08:18;;;;;;;14.55;7.38;;;15.20;99.90;;;;;;5097274;28;20303;-65
2022/10/30 01:10:46;;;;;;;12.52;7.35;;;15.10;99.90;;;;;;5095993;28;20032;-65
2022/10/30 01:13:12;;;;;;;14.95;7.70;;;15.20;99.90;;;;;;5079296;28;20035;-65
2022/10/30 01:16:09;;;;;;;15.40;8.25;;;15.10;99.90;;;;;;5095911;28;20058;-64
2022/10/30 01:18:37;;;;;;;13.02;7.07;;;15.20;99.90;;;;;;5097168;28;20038;-64
2022/10/30 01:21:18;;;;;;;15.68;7.63;;;15.20;99.90;;;;;;5096891;28;20032;-64
2022/10/30 01:24:07;;;;;;;16.77;7.72;;;15.20;99.90;;;;;;5096766;28;20032;-64
2022/10/30 01:26:42;;;;;;;12.75;7.50;;;15.20;99.90;;;;;;5085281;28;20039;-64
2022/10/30 01:29:18;;;;;;;15.65;7.07;;;15.20;99.90;;;;;;5096551;28;20398;-64
2022/10/30 01:32:05;;;;;;;15.32;7.63;;;15.20;99.90;;;;;;5078909;28;20024;-64
2022/10/30 01:35:08;;;;;;;12.70;7.15;;;15.30;99.90;;;;;;5095715;28;20104;-64
2022/10/30 01:38:05;;;;;;;13.25;7.65;;;15.20;99.90;;;;;;5050106;28;20052;-64
2022/10/30 01:40:32;;;;;;;13.02;7.40;;;15.20;99.90;;;;;;5096666;28;20319;-64
2022/10/30 01:42:59;;;;;;;15.57;7.63;;;15.10;99.90;;;;;;5095478;28;20051;-64
2022/10/30 01:45:56;;;;;;;18.25;7.57;;;15.20;99.90;;;;;;5095411;28;20086;-64
2022/10/30 01:48:43;;;;;;;16.27;7.50;;;15.20;99.90;;;;;;5096329;28;20107;-64
2022/10/30 01:51:23;;;;;;;16.38;7.78;;;15.20;99.90;;;;;;5095505;28;20028;-64
2022/10/30 01:54:18;;;;;;;12.20;7.30;;;15.30;99.90;;;;;;5095430;28;20020;-65
2022/10/30 01:57:07;;;;;;;11.25;6.78;;;15.20;99.90;;;;;;5099793;28;20047;-64
2022/10/30 01:59:46;;;;;;;15.48;7.50;;;15.20;99.90;;;;;;5100386;28;20350;-64
2022/10/30 02:02:13;;;;;;;17.50;8.27;;;15.20;99.90;;;;;;5099451;28;20418;-64
2022/10/30 02:04:39;;;;;;;11.63;7.68;;;15.20;99.90;;;;;;5065852;28;20036;-64
2022/10/30 02:07:05;;;;;;;15.35;7.40;;;15.20;99.90;;;;;;5099287;28;20032;-64
2022/10/30 02:09:38;;;;;;;10.18;7.10;;;15.20;99.90;;;;;;5099367;28;20093;-64
2022/10/30 02:12:05;;;;;;;15.32;7.32;;;15.10;99.90;;;;;;5082292;28;20428;-64
2022/10/30 02:14:51;;;;;;;17.88;7.22;;;15.00;99.90;;;;;;5082188;28;20032;-63
2022/10/30 02:17:18;;;;;;;12.00;7.65;;;15.00;99.90;;;;;;5099002;28;20114;-64
2022/10/30 02:19:44;;;;;;;11.88;7.05;;;14.90;99.90;;;;;;5099773;28;20040;-64
2022/10/30 02:22:11;;;;;;;15.45;7.43;;;15.00;99.90;;;;;;5099066;28;20040;-64
2022/10/30 02:24:37;;;;;;;13.13;7.55;;;15.00;99.90;;;;;;5098786;28;20036;-64
2022/10/30 02:27:03;;;;;;;12.93;7.20;;;14.90;99.90;;;;;;5082055;28;20374;-64
2022/10/30 02:29:30;;;;;;;18.33;7.55;;;15.00;99.90;;;;;;5099059;28;20296;-64
2022/10/30 02:31:57;;;;;;;13.27;7.93;;;15.10;99.90;;;;;;5082031;28;20020;-64
2022/10/30 02:34:23;;;;;;;15.55;7.53;;;15.10;99.90;;;;;;5098723;28;20080;-64
2022/10/30 02:36:49;;;;;;;12.88;7.22;;;15.10;99.90;;;;;;5099649;28;20089;-64
2022/10/30 02:39:16;;;;;;;13.75;7.18;;;15.00;99.90;;;;;;5098777;28;20036;-64
2022/10/30 02:41:42;;;;;;;12.93;7.38;;;14.90;99.90;;;;;;5098709;28;20055;-65
2022/10/30 02:44:10;;;;;;;12.93;7.28;;;15.00;99.90;;;;;;5098650;28;20036;-64
2022/10/30 02:46:36;;;;;;;11.10;6.95;;;14.90;99.90;;;;;;5098586;28;20422;-64
2022/10/30 02:49:02;;;;;;;14.20;7.50;;;14.90;99.90;;;;;;5098868;28;20044;-64
2022/10/30 02:51:30;;;;;;;14.10;7.38;;;14.90;99.90;;;;;;5081696;28;20302;-64
2022/10/30 02:53:56;;;;;;;13.00;7.35;;;15.00;99.90;;;;;;5098409;28;20032;-64
2022/10/30 02:56:22;;;;;;;18.08;7.53;;;14.90;99.90;;;;;;5081357;28;20028;-64
2022/10/30 02:58:47;;;;;;;13.60;7.07;;;15.00;99.90;;;;;;5098126;28;20064;-64
2022/10/30 03:01:16;;;;;;;14.40;7.30;;;14.80;99.90;;;;;;5098170;28;20369;-63
2022/10/30 03:03:42;;;;;;;10.05;6.90;;;14.80;99.90;;;;;;5098129;28;20119;-64
2022/10/30 03:06:12;;;;;;;13.38;7.55;;;14.70;99.90;;;;;;5097490;28;20024;-64
2022/10/30 03:08:38;;;;;;;17.13;8.05;;;14.70;99.90;;;;;;5098377;28;20024;-63
2022/10/30 03:11:10;;;;;;;14.57;7.65;;;14.80;99.90;;;;;;5098354;28;20090;-64
2022/10/30 03:13:39;;;;;;;13.68;6.90;;;14.80;99.90;;;;;;5098727;28;20516;-64
2022/10/30 03:16:28;;;;;;;10.55;6.53;;;14.70;99.90;;;;;;5097916;28;20028;-63
2022/10/30 03:18:54;;;;;;;13.70;7.25;;;14.70;99.90;;;;;;5081279;28;20032;-63
2022/10/30 03:21:23;;;;;;;12.98;6.68;;;14.60;99.90;;;;;;5097775;28;20039;-64
2022/10/30 03:23:52;;;;;;;13.80;7.63;;;14.60;99.90;;;;;;5098659;28;20295;-64
2022/10/30 03:26:18;;;;;;;14.20;7.65;;;14.60;99.90;;;;;;5097668;28;20032;-64
2022/10/30 03:28:59;;;;;;;14.63;7.28;;;14.50;99.90;;;;;;5097898;28;20107;-64
2022/10/30 03:31:25;;;;;;;15.77;7.25;;;14.50;99.90;;;;;;5080971;28;20123;-64
2022/10/30 03:34:06;;;;;;;10.88;7.25;;;14.50;99.90;;;;;;5083346;28;20024;-65
2022/10/30 03:36:32;;;;;;;12.15;7.72;;;14.50;99.90;;;;;;5097658;28;20091;-67
2022/10/30 03:38:58;;;;;;;15.95;7.28;;;14.60;99.90;;;;;;5080743;28;20020;-64
2022/10/30 03:41:24;;;;;;;15.27;8.20;;;14.50;99.90;;;;;;5097373;28;20115;-64
2022/10/30 03:43:50;;;;;;;14.93;7.80;;;14.50;99.90;;;;;;5080750;28;20442;-64
2022/10/30 03:46:16;;;;;;;12.30;7.00;;;14.60;99.90;;;;;;5098228;28;20040;-65
2022/10/30 03:48:42;;;;;;;12.65;7.22;;;14.60;99.90;;;;;;5064009;28;20368;-65
2022/10/30 03:51:09;;;;;;;15.48;7.72;;;14.60;99.90;;;;;;5080668;28;20032;-64
2022/10/30 03:53:35;;;;;;;15.45;7.80;;;14.60;99.90;;;;;;5080303;28;20477;-63
2022/10/30 03:56:03;;;;;;;15.32;7.63;;;14.60;99.90;;;;;;5097388;28;20097;-64
2022/10/30 03:58:38;;;;;;;14.93;7.75;;;14.50;99.90;;;;;;5081502;28;20430;-65
2022/10/30 04:01:09;;;;;;;10.98;6.78;;;14.50;99.90;;;;;;5097518;28;20105;-64
2022/10/30 04:03:38;;;;;;;12.68;7.13;;;14.50;99.90;;;;;;5097211;28;20391;-64
2022/10/30 04:06:05;;;;;;;13.57;7.22;;;14.50;99.90;;;;;;5097089;28;20040;-63
2022/10/30 04:08:31;;;;;;;9.98;7.25;;;14.50;99.90;;;;;;5097097;28;20097;-65
2022/10/30 04:10:57;;;;;;;15.07;8.43;;;14.50;99.90;;;;;;5097178;28;20036;-64
2022/10/30 04:13:23;;;;;;;13.82;7.90;;;14.40;99.90;;;;;;5063507;28;20043;-64
2022/10/30 04:15:51;;;;;;;14.43;7.38;;;14.40;99.90;;;;;;5096919;28;20024;-65
2022/10/30 04:18:19;;;;;;;10.38;7.55;;;14.50;99.90;;;;;;5080086;28;20123;-65
2022/10/30 04:20:46;;;;;;;12.85;7.00;;;14.40;99.90;;;;;;5096907;28;20043;-65
2022/10/30 04:23:16;;;;;;;14.13;6.75;;;14.30;99.90;;;;;;5096867;28;20442;-64
2022/10/30 04:25:42;;;;;;;14.80;7.18;;;14.30;99.90;;;;;;5097457;28;20032;-65
2022/10/30 04:28:09;;;;;;;12.25;7.25;;;14.30;99.90;;;;;;5096702;28;20321;-65
2022/10/30 04:30:37;;;;;;;16.60;7.72;;;14.30;99.90;;;;;;5079995;28;20032;-64
2022/10/30 04:33:05;;;;;;;13.82;7.53;;;14.30;99.90;;;;;;5096606;28;20024;-65
2022/10/30 04:35:35;;;;;;;13.85;7.25;;;14.30;99.90;;;;;;5096614;28;20029;-65
2022/10/30 04:38:13;;;;;;;14.48;7.50;;;14.20;99.90;;;;;;5096472;28;20463;-65
2022/10/30 04:40:42;;;;;;;10.90;6.80;;;14.20;99.90;;;;;;5096937;28;20028;-65
2022/10/30 04:43:10;;;;;;;11.63;6.60;;;14.10;99.90;;;;;;5096564;28;20043;-64
2022/10/30 04:45:37;;;;;;;16.35;7.53;;;14.10;99.90;;;;;;5096549;28;20093;-64
2022/10/30 04:48:07;;;;;;;11.75;7.18;;;14.00;99.90;;;;;;5096617;28;20119;-65
2022/10/30 04:50:34;;;;;;;15.10;7.43;;;13.90;99.90;;;;;;5096555;28;20024;-64
2022/10/30 04:53:15;;;;;;;18.58;8.27;;;13.90;99.90;;;;;;5095953;28;20028;-63
2022/10/30 04:55:43;;;;;;;10.68;7.05;;;13.90;99.90;;;;;;5096368;28;20056;-65
2022/10/30 04:58:11;;;;;;;15.30;7.95;;;13.90;99.90;;;;;;5096104;28;20070;-66
2022/10/30 05:00:39;;;;;;;15.15;7.38;;;14.00;99.90;;;;;;5096091;28;20028;-67
2022/10/30 05:03:19;;;;;;;14.32;7.15;;;14.00;99.90;;;;;;5097411;28;20051;-67
2022/10/30 05:05:56;;;;;;;14.30;7.47;;;13.90;99.90;;;;;;5097137;28;20031;-67
2022/10/30 05:08:21;;;;;;;11.57;7.30;;;13.80;99.90;;;;;;5097388;28;20284;-67
2022/10/30 05:10:47;;;;;;;16.50;7.88;;;13.80;99.90;;;;;;5096212;28;20044;-67
2022/10/30 05:13:13;;;;;;;12.05;7.40;;;13.70;99.90;;;;;;5096073;28;20338;-67
2022/10/30 05:15:40;;;;;;;12.50;7.47;;;13.80;99.90;;;;;;5079417;28;20044;-67
2022/10/30 05:18:07;;;;;;;18.95;7.97;;;13.70;99.90;;;;;;5096051;28;20122;-66
2022/10/30 05:20:33;;;;;;;15.48;7.65;;;13.70;99.90;;;;;;5096018;28;20131;-65
2022/10/30 05:22:59;;;;;;;15.90;7.35;;;13.60;99.90;;;;;;5096212;28;20360;-67
2022/10/30 05:25:26;;;;;;;15.80;8.07;;;13.60;99.90;;;;;;5095887;28;20024;-66
2022/10/30 05:28:02;;;;;;;18.77;8.23;;;13.60;99.90;;;;;;5096123;28;20288;-66
2022/10/30 05:30:32;;;;;;;12.77;8.02;;;13.70;99.90;;;;;;5095465;28;20174;-66
2022/10/30 05:33:10;;;;;;;14.18;8.57;;;13.60;99.90;;;;;;5095907;28;20346;-67
2022/10/30 05:35:37;;;;;;;15.90;8.68;;;13.70;99.90;;;;;;5095894;28;20304;-66
2022/10/30 05:38:06;;;;;;;12.38;7.80;;;13.70;99.90;;;;;;5079114;28;20024;-66
2022/10/30 05:40:33;;;;;;;14.98;7.88;;;13.60;99.90;;;;;;5079008;28;20083;-66
2022/10/30 05:42:59;;;;;;;17.20;9.05;;;13.60;99.90;;;;;;5095795;28;20120;-66
2022/10/30 05:45:25;;;;;;;17.42;8.40;;;13.60;99.90;;;;;;5095715;28;20446;-67
2022/10/30 05:48:04;;;;;;;15.38;7.63;;;13.60;99.90;;;;;;5095991;28;20035;-66
2022/10/30 05:50:36;;;;;;;13.88;7.82;;;13.50;99.90;;;;;;5096061;28;20252;-66
2022/10/30 05:53:18;;;;;;;13.37;7.83;;;13.50;99.90;;;;;;5096128;28;20421;-67
2022/10/30 05:55:44;;;;;;;15.68;7.63;;;13.40;99.90;;;;;;5095694;28;20278;-66
2022/10/30 05:58:16;;;;;;;16.17;7.82;;;13.40;99.90;;;;;;5095564;28;20070;-66
2022/10/30 06:00:44;;;;;;;11.45;7.65;;;13.40;99.90;;;;;;5079043;28;20032;-66
2022/10/30 06:03:12;;;;;;;13.25;8.52;;;13.40;99.90;;;;;;5079265;28;20036;-66
2022/10/30 06:05:43;;;;;;;16.15;8.15;;;13.30;99.90;;;;;;5078940;28;20036;-66
2022/10/30 06:08:09;;;;;;;11.88;7.47;;;13.40;99.90;;;;;;5078786;28;20028;-66
2022/10/30 06:10:36;;;;;;;15.82;8.27;;;13.40;99.90;;;;;;5095671;28;20123;-66
2022/10/30 06:13:22;;;;;;;16.40;8.15;;;13.30;99.90;;;;;;5096617;28;20040;-66
2022/10/30 06:15:55;;;;;;;16.02;7.82;;;13.30;99.90;;;;;;5095342;28;20138;-65
2022/10/30 06:18:22;;;;;;;14.88;7.57;;;13.30;99.90;;;;;;5095493;28;20032;-65
2022/10/30 06:20:54;;;;;;;16.40;8.20;;;13.30;99.90;;;;;;5095443;28;20055;-65
2022/10/30 06:23:43;;;;;;;13.60;7.90;;;13.40;99.90;;;;;;5086322;28;20040;-66
2022/10/30 06:26:25;;;;;;;17.00;8.02;;;13.40;99.90;;;;;;5095701;28;20039;-66
2022/10/30 06:28:54;;;;;;;13.93;7.88;;;13.40;99.90;;;;;;5095766;28;20418;-67
2022/10/30 06:31:20;;;;;;;17.75;8.70;;;13.30;99.90;;;;;;5095899;28;20024;-65
2022/10/30 06:33:46;;;;;;;16.58;8.80;;;13.40;99.90;;;;;;5095330;28;20028;-67
2022/10/30 06:36:13;;;;;;;15.75;9.00;;;13.40;99.90;;;;;;5095322;28;20054;-68
2022/10/30 06:38:39;;;;;;;16.60;8.75;;;13.40;99.90;;;;;;5078554;28;20035;-63
2022/10/30 06:41:06;;;;;;;16.08;7.63;;;13.40;99.90;;;;;;5079607;28;20032;-70
2022/10/30 06:43:58;;;;;;;14.02;8.05;;;13.50;99.90;;;;;;5091140;28;20300;-66
2022/10/30 06:46:24;;;;;;;16.98;8.85;;;13.50;99.90;;;;;;5099163;28;20047;-65
2022/10/30 06:48:50;;;;;;;16.23;8.20;;;13.50;99.90;;;;;;5098890;28;20395;-65
2022/10/30 06:51:17;;;;;;;14.57;8.07;;;13.50;99.90;;;;;;5098962;28;20039;-66
2022/10/30 06:53:44;;;;;;;15.40;8.15;;;13.60;99.90;;;;;;5098746;28;20027;-65
2022/10/30 06:56:28;;;;;;;15.52;8.32;;;13.60;99.90;;;;;;5098726;28;20063;-66
2022/10/30 06:59:17;;;;;;;18.95;8.55;;;13.70;99.90;;;;;;5099002;28;20048;-67
2022/10/30 07:02:09;;;;;;;15.52;8.25;;;13.70;99.90;;;;;;5098640;28;20036;-67
2022/10/30 07:04:56;;;;;;;14.98;8.35;;;13.70;99.90;;;;;;5098561;28;20044;-67
2022/10/30 07:07:23;;;;;;;13.48;7.55;;;13.80;99.90;;;;;;5098686;28;20065;-66
2022/10/30 07:09:49;;;;;;;12.82;8.10;;;13.80;99.90;;;;;;5098540;28;20032;-67
2022/10/30 07:12:18;;;;;;;14.45;7.95;;;13.80;99.90;;;;;;5098530;28;20032;-66
2022/10/30 07:14:59;;;;;;;17.70;8.27;;;13.90;99.90;;;;;;5098373;28;20056;-66
2022/10/30 07:17:34;;;;;;;13.65;7.78;;;14.00;99.90;;;;;;5098547;28;20036;-68
2022/10/30 07:20:07;;;;;;;12.90;8.02;;;14.10;99.90;;;;;;5098948;28;20059;-66
2022/10/30 07:22:32;;;;;;;14.15;8.10;;;14.20;99.90;;;;;;5081405;28;20032;-65
2022/10/30 07:24:58;;;;;;;14.32;8.23;;;14.20;99.90;;;;;;5081387;28;20497;-67
2022/10/30 07:27:41;;;;;;;10.38;7.28;;;14.30;99.90;;;;;;5098138;28;20032;-67
2022/10/30 07:30:26;;;;;;;12.30;7.23;;;14.40;99.90;;;;;;5098082;28;20027;-68
2022/10/30 07:33:14;;;;;;;9.82;6.50;;;14.50;99.90;;;;;;5098153;28;20028;-67
2022/10/30 07:36:07;;;;;;;13.70;7.57;;;14.60;99.90;;;;;;5092832;28;20037;-68
2022/10/30 07:39:02;;;;;;;8.60;6.40;;;14.60;99.90;;;;;;5098088;28;20558;-69
2022/10/30 07:41:35;;;;;;;;;;;14.70;99.90;;;;;;5098318;28;20024;-68
2022/10/30 07:44:19;;;;;;;14.20;7.43;;;14.80;99.90;;;;;;5098647;28;20019;-67
2022/10/30 07:46:56;;;;;;;16.08;7.93;;;14.90;99.90;;;;;;5098618;28;20047;-67
2022/10/30 07:49:43;;;;;;;12.85;7.45;;;15.00;99.90;;;;;;5097856;28;20341;-67
2022/10/30 07:52:10;;;;;;;13.60;7.97;;;15.10;99.90;;;;;;5097696;28;20093;-64
2022/10/30 07:54:36;;;;;;;17.55;8.00;;;15.10;99.90;;;;;;5080395;28;20089;-63
2022/10/30 07:57:22;;;;;;;12.30;7.70;;;15.20;99.90;;;;;;5098164;28;20126;-70
2022/10/30 08:00:09;;;;;;;10.70;7.13;;;15.30;99.90;;;;;;5098891;28;20050;-65
2022/10/30 08:02:55;;;;;;;15.15;7.70;;;15.40;99.90;;;;;;5083153;28;20028;-72
2022/10/30 08:05:40;;;;;;;13.80;7.55;;;15.50;99.90;;;;;;5098910;28;20098;-67
2022/10/30 08:08:09;;;;;;;13.77;7.82;;;15.60;99.90;;;;;;5097702;28;20082;-68
2022/10/30 08:10:36;;;;;;;18.17;7.93;;;15.70;99.90;;;;;;5097697;28;20047;-66
2022/10/30 08:13:03;;;;;;;19.10;8.32;;;15.80;99.90;;;;;;5098259;28;20067;-67
2022/10/30 08:15:28;;;;;;;11.20;7.18;;;15.90;99.90;;;;;;5097426;28;20093;-66
2022/10/30 08:17:54;;;;;;;12.27;6.75;;;16.10;99.90;;;;;;5098255;28;20307;-68
2022/10/30 08:20:23;;;;;;;13.10;7.45;;;16.20;99.90;;;;;;5098093;28;20043;-68
2022/10/30 08:22:58;;;;;;;12.60;6.82;;;16.40;99.90;;;;;;5097299;28;20100;-68
2022/10/30 08:25:27;;;;;;;12.15;7.30;;;16.60;99.90;;;;;;5080468;28;20079;-66
2022/10/30 08:27:59;;;;;;;12.48;6.82;;;16.70;99.90;;;;;;5097245;28;20058;-67
2022/10/30 08:30:30;;;;;;;14.68;7.68;;;16.80;99.90;;;;;;5097268;28;20035;-68
2022/10/30 08:32:58;;;;;;;11.50;6.75;;;17.00;99.90;;;;;;5097334;28;20020;-67
2022/10/30 08:35:51;;;;;;;17.35;7.50;;;17.10;99.90;;;;;;5098222;28;20089;-68
2022/10/30 08:38:17;;;;;;;12.90;6.60;;;17.20;99.90;;;;;;5097873;28;20027;-68
2022/10/30 08:40:47;;;;;;;13.55;7.57;;;17.40;99.90;;;;;;5081113;28;20488;-67
2022/10/30 08:43:15;;;;;;;12.65;7.13;;;17.40;99.90;;;;;;5096847;28;20407;-67
2022/10/30 08:45:42;;;;;;;13.70;7.53;;;17.50;99.90;;;;;;5096724;28;20415;-66
2022/10/30 08:48:13;;;;;;;12.25;6.97;;;17.60;99.90;;;;;;5080407;28;20438;-67
2022/10/30 08:50:41;;;;;;;20.05;6.95;;;17.60;99.90;;;;;;5097846;28;20295;-68
2022/10/30 08:53:12;;;;;;;20.48;7.97;;;17.60;99.90;;;;;;5096629;28;20031;-68
2022/10/30 08:55:38;;;;;;;16.40;7.35;;;17.50;99.90;;;;;;5097494;28;20043;-67
2022/10/30 08:58:10;;;;;;;13.50;6.90;;;17.10;99.90;;;;;;5080523;28;20048;-67
2022/10/30 09:00:36;;;;;;;14.80;7.68;;;17.10;99.90;;;;;;5096724;28;20039;-68
2022/10/30 09:03:11;;;;;;;16.90;7.38;;;17.00;99.90;;;;;;5097740;28;20043;-66
2022/10/30 09:06:03;;;;;;;15.02;6.78;;;17.00;99.90;;;;;;5096248;28;20423;-66
2022/10/30 09:08:32;;;;;;;17.50;7.55;;;17.00;99.90;;;;;;5097726;28;20043;-66
2022/10/30 09:11:05;;;;;;;17.23;6.90;;;17.00;99.90;;;;;;5081102;28;20028;-66
2022/10/30 09:13:31;;;;;;;14.52;7.10;;;16.90;99.90;;;;;;5096362;28;20056;-66
2022/10/30 09:16:02;;;;;;;17.65;7.40;;;16.80;99.90;;;;;;5079540;28;20123;-69
2022/10/30 09:18:31;;;;;;;18.40;6.88;;;16.60;99.90;;;;;;5096400;28;20088;-66
2022/10/30 09:20:57;;;;;;;17.10;7.80;;;16.80;99.90;;;;;;5079641;28;20036;-65
2022/10/30 09:23:23;;;;;;;14.70;6.90;;;16.80;99.90;;;;;;5096359;28;20197;-66
2022/10/30 09:25:58;;;;;;;11.23;6.18;;;16.90;99.90;;;;;;5064628;28;20315;-67
2022/10/30 09:28:48;;;;;;;14.02;6.75;;;17.10;99.90;;;;;;5096540;28;20399;-67
2022/10/30 09:31:34;;;;;;;15.70;7.25;;;17.40;99.90;;;;;;5086017;28;20055;-68
2022/10/30 09:34:02;;;;;;;14.95;6.97;;;17.60;99.90;;;;;;5079768;28;20391;-67
2022/10/30 09:36:45;;;;;;;16.60;6.82;;;17.50;99.90;;;;;;5096247;28;20315;-66
2022/10/30 09:39:11;;;;;;;14.93;6.35;;;17.60;99.90;;;;;;5096229;28;20036;-65
2022/10/30 09:41:43;;;;;;;12.48;6.38;;;17.60;99.90;;;;;;5096393;28;20044;-64
2022/10/30 09:44:54;;;;;;;18.58;6.93;;;17.90;99.90;;;;;;5096505;28;20272;-67
2022/10/30 09:48:02;;;;;;;17.55;6.43;;;18.20;99.90;;;;;;5096349;28;20119;-68
2022/10/30 09:50:56;;;;;;;16.58;6.15;;;18.20;99.90;;;;;;5096675;28;20287;-68
2022/10/30 09:53:30;;;;;;;11.38;5.53;;;18.60;99.90;;;;;;5096181;28;20020;-69
2022/10/30 09:56:03;;;;;;;12.52;5.60;;;19.70;99.90;;;;;;5096088;28;20115;-66
2022/10/30 09:59:07;;;;;;;12.48;4.90;;;20.00;99.90;;;;;;5079092;28;20051;-68
2022/10/30 10:01:57;;;;;;;14.95;5.00;;;21.00;99.90;;;;;;5095888;28;20040;-67
2022/10/30 10:04:43;;;;;;;15.18;5.70;;;20.80;99.90;;;;;;5095840;28;20028;-67
2022/10/30 10:07:24;;;;;;;15.45;5.40;;;20.70;99.90;;;;;;5096303;28;20100;-67
2022/10/30 10:10:05;;;;;;;11.27;5.03;;;20.30;99.90;;;;;;5095919;28;20035;-65
2022/10/30 10:12:55;;;;;;;12.60;5.00;;;20.10;99.90;;;;;;5096179;28;20040;-65
2022/10/30 10:15:30;;;;;;;16.33;5.32;;;19.70;99.90;;;;;;5096671;28;20134;-66
2022/10/30 10:18:00;;;;;;;11.93;4.78;;;19.40;99.90;;;;;;5100082;28;20459;-67
2022/10/30 10:20:44;;;;;;;8.65;4.43;;;19.60;99.90;;;;;;5100843;28;20028;-68
2022/10/30 10:23:29;;;;;;;10.00;4.70;;;20.30;99.90;;;;;;5100139;28;20035;-68
2022/10/30 10:25:59;;;;;;;14.02;5.32;;;21.20;99.90;;;;;;5100268;28;20092;-67
2022/10/30 10:28:52;;;;;;;12.45;4.68;;;21.00;99.90;;;;;;5100085;28;20020;-68
2022/10/30 10:31:24;;;;;;;11.05;4.70;;;20.70;99.90;;;;;;5100223;28;20024;-69
2022/10/30 10:34:07;;;;;;;13.10;5.15;;;21.00;99.90;;;;;;5082448;28;20379;-68
2022/10/30 10:36:54;;;;;;;12.88;5.10;;;20.50;99.90;;;;;;5100169;28;20032;-66
2022/10/30 10:39:42;;;;;;;15.00;5.22;;;20.30;99.90;;;;;;5099346;28;20332;-66
2022/10/30 10:42:35;;;;;;;11.45;5.05;;;20.20;99.90;;;;;;5099937;28;20039;-67
2022/10/30 10:45:28;;;;;;;11.23;4.65;;;20.00;99.90;;;;;;5099902;28;20035;-67
2022/10/30 10:48:29;;;;;;;13.38;4.93;;;19.70;99.90;;;;;;5099834;28;20032;-68
2022/10/30 10:51:01;;;;;;;16.48;5.20;;;19.70;99.90;;;;;;5095590;28;20028;-68
2022/10/30 10:53:36;;;;;;;14.23;4.93;;;20.00;99.90;;;;;;5082518;28;20435;-66
2022/10/30 10:56:02;;;;;;;14.98;5.22;;;20.20;99.90;;;;;;5099951;28;20036;-67
2022/10/30 10:58:35;;;;;;;10.70;5.07;;;20.40;99.90;;;;;;5099694;28;20315;-67
2022/10/30 11:01:01;;;;;;;12.82;5.35;;;20.50;99.90;;;;;;5100176;28;20039;-68
2022/10/30 11:03:44;;;;;;;15.52;5.60;;;20.40;99.90;;;;;;5099722;28;20028;-68
2022/10/30 11:06:26;;;;;;;13.98;4.85;;;20.10;99.90;;;;;;5099783;28;20036;-67
2022/10/30 11:09:00;;;;;;;11.00;4.93;;;20.50;99.90;;;;;;5098992;28;20032;-67
2022/10/30 11:11:26;;;;;;;12.30;4.80;;;21.00;99.90;;;;;;5098744;28;20024;-68
2022/10/30 11:13:53;;;;;;;14.60;4.97;;;21.30;99.90;;;;;;5099458;28;20097;-68
2022/10/30 11:16:59;;;;;;;11.00;4.30;;;21.50;99.90;;;;;;5098822;28;20085;-69
2022/10/30 11:19:24;;;;;;;12.80;4.95;;;21.80;99.90;;;;;;5098314;28;20031;-68
2022/10/30 11:21:54;;;;;;;16.00;5.60;;;21.50;99.90;;;;;;5099150;28;20107;-68
2022/10/30 11:24:31;;;;;;;12.60;6.13;;;21.10;99.90;;;;;;5099841;28;20387;-67
2022/10/30 11:27:18;;;;;;;15.05;5.97;;;20.40;99.90;;;;;;5098187;28;20107;-67
2022/10/30 11:30:05;;;;;;;16.80;6.32;;;20.10;99.90;;;;;;5084198;28;20040;-68
2022/10/30 11:32:33;;;;;;;16.17;5.85;;;20.10;99.90;;;;;;5099262;28;20036;-69
2022/10/30 11:35:07;;;;;;;19.35;6.30;;;20.00;99.90;;;;;;5080948;28;20302;-68
2022/10/30 11:37:35;;;;;;;14.65;5.60;;;20.00;99.90;;;;;;5081078;28;20040;-68
2022/10/30 11:40:15;;;;;;;13.93;5.82;;;19.70;99.90;;;;;;5098678;28;20025;-69
2022/10/30 11:42:56;;;;;;;17.83;6.07;;;19.90;99.90;;;;;;5098627;28;20034;-68
2022/10/30 11:45:52;;;;;;;15.63;6.00;;;20.10;99.90;;;;;;5098941;28;20387;-69
2022/10/30 11:48:22;;;;;;;19.35;6.38;;;20.40;99.90;;;;;;5077523;28;20123;-68
2022/10/30 11:50:50;;;;;;;13.45;5.32;;;20.40;99.90;;;;;;5098755;28;20024;-70
2022/10/30 11:53:24;;;;;;;12.07;5.57;;;20.50;99.90;;;;;;5097988;28;20020;-67
2022/10/30 11:55:50;;;;;;;11.80;5.28;;;20.70;99.90;;;;;;5098717;28;20024;-67
2022/10/30 11:58:27;;;;;;;12.18;5.95;;;21.20;99.90;;;;;;5097861;28;20131;-68
2022/10/30 12:01:37;;;;;;;11.73;5.28;;;21.20;99.90;;;;;;5097933;28;20472;-67
2022/10/30 12:04:33;;;;;;;15.98;5.90;;;20.90;99.90;;;;;;5081473;28;20063;-67
2022/10/30 12:07:21;;;;;;;12.65;5.63;;;20.70;99.90;;;;;;5093640;28;20048;-67
2022/10/30 12:09:47;;;;;;;11.50;5.40;;;20.60;99.90;;;;;;5097692;28;20377;-68
2022/10/30 12:12:40;;;;;;;11.50;5.45;;;20.30;99.90;;;;;;5080697;28;20028;-68
2022/10/30 12:15:17;;;;;;;;;;;20.20;99.90;;;;;;5089058;28;20047;-68
2022/10/30 12:18:24;;;;;;;13.82;5.05;;;20.20;99.90;;;;;;5098563;28;19915;-68
2022/10/30 12:20:56;;;;;;;9.90;4.72;;;20.40;99.90;;;;;;5033119;28;20040;-69
2022/10/30 12:23:25;;;;;;;10.93;5.30;;;20.50;99.90;;;;;;5098487;28;20024;-68
2022/10/30 12:25:53;;;;;;;18.10;5.10;;;20.80;99.90;;;;;;5097362;28;20278;-69
2022/10/30 12:28:24;;;;;;;11.55;5.13;;;20.70;99.90;;;;;;5098293;28;20048;-69
2022/10/30 12:31:19;;;;;;;11.18;4.80;;;20.70;99.90;;;;;;5098267;28;20032;-68
2022/10/30 12:34:04;;;;;;;11.80;4.93;;;20.80;99.90;;;;;;5098114;28;20055;-68
2022/10/30 12:36:35;;;;;;;10.73;4.82;;;20.90;99.90;;;;;;5098075;28;20028;-68
2022/10/30 12:39:14;;;;;;;10.57;4.90;;;20.70;99.90;;;;;;5080264;28;20074;-70
2022/10/30 12:41:52;;;;;;;14.73;5.00;;;20.90;99.90;;;;;;5097905;28;20032;-70
2022/10/30 12:44:43;;;;;;;11.73;4.72;;;20.90;99.90;;;;;;5097118;28;20028;-69
2022/10/30 12:47:16;;;;;;;11.52;4.70;;;20.90;99.90;;;;;;5097277;28;20054;-69
2022/10/30 12:49:47;;;;;;;10.95;4.53;;;20.70;99.90;;;;;;5097583;28;20019;-69
2022/10/30 12:52:25;;;;;;;13.05;4.35;;;20.70;99.90;;;;;;5097631;28;20379;-69
2022/10/30 12:54:59;;;;;;;12.45;4.68;;;20.90;99.90;;;;;;5097808;28;20028;-68
2022/10/30 12:57:30;;;;;;;11.43;4.25;;;21.30;99.90;;;;;;5097573;28;20434;-69
2022/10/30 12:59:58;;;;;;;12.93;5.00;;;21.40;99.90;;;;;;5097652;28;20042;-69
2022/10/30 13:02:32;;;;;;;13.95;4.35;;;21.60;99.90;;;;;;5097237;28;20036;-68
2022/10/30 13:05:04;;;;;;;9.15;4.28;;;21.30;99.90;;;;;;5097461;28;20036;-68
2022/10/30 13:07:46;;;;;;;13.37;4.20;;;21.30;99.90;;;;;;5097414;28;20023;-69
2022/10/30 13:10:37;;;;;;;12.43;4.30;;;21.50;99.90;;;;;;5097329;28;20254;-68
2022/10/30 13:13:12;;;;;;;11.70;4.93;;;21.80;99.90;;;;;;5097288;28;20020;-67